Maersk Ahram — SSML — position and weather

sailwx.info

Track history (hours):
 
Tides and Currents Weather Stations Pressure Air Temp Water Temp Dewpoint Dewpoint Depression Visibility Wind Speed Wind Dir Waves Ship Positions

Maersk Ahram

Last reported at 2017-Sep-21 18:26 UTC. Time now 2017-Sep-24 08:51 UTC.
Position N 37°48' E 025°45'.

Length 155 m; draft 8.6 m.

Type: Cargo ship. MMSI: 622122208.

Date/timePositionNaut miles runAvg speedWind from/ knotsBaromVisibWave heightAir tempDewpointWater temp
2017-Sep-21 18:26N 37°48' E 025°45'715.3
2017-Sep-21 18:00N 37°41' E 025°45'1614.4
2017-Sep-21 16:53N 37°25' E 025°50'514.6
2017-Sep-21 16:30N 37°21' E 025°54'28714.5
2017-Sep-20 20:44N 33°41' E 029°41'314.4
2017-Sep-20 20:31N 33°39' E 029°43'714.3
2017-Sep-20 20:01N 33°33' E 029°49'713.9
2017-Sep-20 19:31N 33°28' E 029°54'713.9
2017-Sep-20 19:00N 33°23' E 029°60'714.7
2017-Sep-20 18:30N 33°17' E 030°06'2215.0
2017-Sep-20 17:02N 33°01' E 030°23'315.0
2017-Sep-20 16:49N 32°58' E 030°26'  
2017-Sep-15 14:15N 37°20' E 025°54'415.5
2017-Sep-15 14:00N 37°23' E 025°52'815.1
2017-Sep-15 13:31N 37°29' E 025°47'815.1
2017-Sep-15 13:00N 37°37' E 025°45'815.2
2017-Sep-15 12:31N 37°45' E 025°45'  
2017-Sep-13 02:51N 39°41' E 025°49'515.2
2017-Sep-13 02:30N 39°46' E 025°50'15312.1
2017-Sep-12 13:50N 40°25' E 029°04'0 1.2
2017-Sep-12 13:26N 40°25' E 029°05'0 0.0
2017-Sep-12 12:56N 40°25' E 029°05'0 0.0
2017-Sep-12 12:20N 40°25' E 029°05'0 0.0
2017-Sep-12 11:56N 40°25' E 029°05'0 0.0
2017-Sep-12 11:26N 40°25' E 029°05'0 0.0
2017-Sep-12 10:50N 40°25' E 029°05'0 0.0
2017-Sep-12 10:26N 40°25' E 029°05'0 0.0
2017-Sep-12 09:56N 40°25' E 029°05'0 0.0
2017-Sep-12 09:26N 40°25' E 029°05'0 0.0
2017-Sep-12 08:56N 40°25' E 029°05'0 0.0
2017-Sep-12 08:20N 40°25' E 029°05'0 0.0
2017-Sep-12 07:56N 40°25' E 029°05'0 0.0
2017-Sep-12 07:26N 40°25' E 029°05'0 0.0
2017-Sep-12 06:56N 40°25' E 029°05'0 0.0
2017-Sep-12 06:26N 40°25' E 029°05'0 0.0
2017-Sep-12 05:56N 40°25' E 029°05'1 1.7
2017-Sep-12 05:30N 40°26' E 029°04'2 1.1
2017-Sep-12 03:27N 40°25' E 029°01'22 6.1
2017-Sep-11 23:55N 40°41' E 028°42'615.4
2017-Sep-11 23:30N 40°47' E 028°42'814.7
2017-Sep-11 22:59N 40°55' E 028°41'3 5.7
2017-Sep-11 22:30N 40°58' E 028°41'  
Track history (hours):
 
Tides and Currents Weather Stations Pressure Air Temp Water Temp Dewpoint Dewpoint Depression Visibility Wind Speed Wind Dir Waves Ship Positions

Maersk Ahram

Last reported at 2017-Sep-21 18:26 UTC. Time now 2017-Sep-24 08:51 UTC.
Position N 37°48' E 025°45'.

Length 155 m; draft 8.6 m.

Type: Cargo ship. MMSI: 622122208.

Date/timePositionNaut miles runAvg speedWind from/ knotsBaromVisibWave heightAir tempDewpointWater temp
2017-Sep-21 18:26N 37°48' E 025°45'715.3
2017-Sep-21 18:00N 37°41' E 025°45'1614.4
2017-Sep-21 16:53N 37°25' E 025°50'514.6
2017-Sep-21 16:30N 37°21' E 025°54'28714.5
2017-Sep-20 20:44N 33°41' E 029°41'314.4
2017-Sep-20 20:31N 33°39' E 029°43'714.3
2017-Sep-20 20:01N 33°33' E 029°49'713.9
2017-Sep-20 19:31N 33°28' E 029°54'713.9
2017-Sep-20 19:00N 33°23' E 029°60'714.7
2017-Sep-20 18:30N 33°17' E 030°06'2215.0
2017-Sep-20 17:02N 33°01' E 030°23'315.0
2017-Sep-20 16:49N 32°58' E 030°26'  
2017-Sep-15 14:15N 37°20' E 025°54'415.5
2017-Sep-15 14:00N 37°23' E 025°52'815.1
2017-Sep-15 13:31N 37°29' E 025°47'815.1
2017-Sep-15 13:00N 37°37' E 025°45'815.2
2017-Sep-15 12:31N 37°45' E 025°45'  
2017-Sep-13 02:51N 39°41' E 025°49'515.2
2017-Sep-13 02:30N 39°46' E 025°50'15312.1
2017-Sep-12 13:50N 40°25' E 029°04'0 1.2
2017-Sep-12 13:26N 40°25' E 029°05'0 0.0
2017-Sep-12 12:56N 40°25' E 029°05'0 0.0
2017-Sep-12 12:20N 40°25' E 029°05'0 0.0
2017-Sep-12 11:56N 40°25' E 029°05'0 0.0
2017-Sep-12 11:26N 40°25' E 029°05'0 0.0
2017-Sep-12 10:50N 40°25' E 029°05'0 0.0
2017-Sep-12 10:26N 40°25' E 029°05'0 0.0
2017-Sep-12 09:56N 40°25' E 029°05'0 0.0
2017-Sep-12 09:26N 40°25' E 029°05'0 0.0
2017-Sep-12 08:56N 40°25' E 029°05'0 0.0
2017-Sep-12 08:20N 40°25' E 029°05'0 0.0
2017-Sep-12 07:56N 40°25' E 029°05'0 0.0
2017-Sep-12 07:26N 40°25' E 029°05'0 0.0
2017-Sep-12 06:56N 40°25' E 029°05'0 0.0
2017-Sep-12 06:26N 40°25' E 029°05'0 0.0
2017-Sep-12 05:56N 40°25' E 029°05'1 1.7
2017-Sep-12 05:30N 40°26' E 029°04'2 1.1
2017-Sep-12 03:27N 40°25' E 029°01'22 6.1
2017-Sep-11 23:55N 40°41' E 028°42'615.4
2017-Sep-11 23:30N 40°47' E 028°42'814.7
2017-Sep-11 22:59N 40°55' E 028°41'3 5.7
2017-Sep-11 22:30N 40°58' E 028°41'  

Dump ship's entire track history